sensor_id;sensor_type;location;lat;lon;timestamp;P1;durP1;ratioP1;P2;durP2;ratioP2
3355;SDS011;1691;52.486;13.374;2023-12-07T00:02:03;18.37;;;14.03;;
3355;SDS011;1691;52.486;13.374;2023-12-07T00:04:31;17.10;;;13.87;;
3355;SDS011;1691;52.486;13.374;2023-12-07T00:06:58;19.93;;;14.60;;
3355;SDS011;1691;52.486;13.374;2023-12-07T00:09:25;14.13;;;12.60;;
3355;SDS011;1691;52.486;13.374;2023-12-07T00:11:52;17.27;;;14.47;;
3355;SDS011;1691;52.486;13.374;2023-12-07T00:14:20;18.50;;;14.07;;
3355;SDS011;1691;52.486;13.374;2023-12-07T00:16:47;18.00;;;14.27;;
3355;SDS011;1691;52.486;13.374;2023-12-07T00:19:15;16.03;;;14.13;;
3355;SDS011;1691;52.486;13.374;2023-12-07T00:21:42;16.90;;;13.73;;
3355;SDS011;1691;52.486;13.374;2023-12-07T00:24:09;19.40;;;14.03;;
3355;SDS011;1691;52.486;13.374;2023-12-07T00:26:36;19.73;;;14.67;;
3355;SDS011;1691;52.486;13.374;2023-12-07T00:29:04;17.10;;;14.50;;
3355;SDS011;1691;52.486;13.374;2023-12-07T00:31:31;15.17;;;13.47;;
3355;SDS011;1691;52.486;13.374;2023-12-07T00:33:58;19.20;;;14.83;;
3355;SDS011;1691;52.486;13.374;2023-12-07T00:36:25;13.93;;;12.43;;
3355;SDS011;1691;52.486;13.374;2023-12-07T00:38:53;21.03;;;15.90;;
3355;SDS011;1691;52.486;13.374;2023-12-07T00:41:20;16.90;;;13.10;;
3355;SDS011;1691;52.486;13.374;2023-12-07T00:43:47;17.50;;;13.80;;
3355;SDS011;1691;52.486;13.374;2023-12-07T00:46:14;19.53;;;14.67;;
3355;SDS011;1691;52.486;13.374;2023-12-07T00:48:41;17.33;;;13.27;;
3355;SDS011;1691;52.486;13.374;2023-12-07T00:51:08;17.07;;;13.87;;
3355;SDS011;1691;52.486;13.374;2023-12-07T00:53:36;17.03;;;13.43;;
3355;SDS011;1691;52.486;13.374;2023-12-07T00:56:03;17.03;;;13.60;;
3355;SDS011;1691;52.486;13.374;2023-12-07T00:58:30;16.87;;;13.93;;
3355;SDS011;1691;52.486;13.374;2023-12-07T01:00:58;15.77;;;14.13;;
3355;SDS011;1691;52.486;13.374;2023-12-07T01:03:25;16.27;;;13.00;;
3355;SDS011;1691;52.486;13.374;2023-12-07T01:05:52;18.03;;;14.10;;
3355;SDS011;1691;52.486;13.374;2023-12-07T01:08:19;17.83;;;13.97;;
3355;SDS011;1691;52.486;13.374;2023-12-07T01:10:46;18.50;;;13.80;;
3355;SDS011;1691;52.486;13.374;2023-12-07T01:13:13;16.63;;;13.60;;
3355;SDS011;1691;52.486;13.374;2023-12-07T01:15:40;18.03;;;13.60;;
3355;SDS011;1691;52.486;13.374;2023-12-07T01:18:07;16.97;;;13.70;;
3355;SDS011;1691;52.486;13.374;2023-12-07T01:20:34;17.67;;;13.70;;
3355;SDS011;1691;52.486;13.374;2023-12-07T01:23:01;20.77;;;15.30;;
3355;SDS011;1691;52.486;13.374;2023-12-07T01:25:28;20.73;;;14.40;;
3355;SDS011;1691;52.486;13.374;2023-12-07T01:27:55;16.27;;;13.23;;
3355;SDS011;1691;52.486;13.374;2023-12-07T01:30:22;15.60;;;13.07;;
3355;SDS011;1691;52.486;13.374;2023-12-07T01:32:49;19.07;;;13.70;;
3355;SDS011;1691;52.486;13.374;2023-12-07T01:35:17;18.80;;;14.47;;
3355;SDS011;1691;52.486;13.374;2023-12-07T01:37:44;18.10;;;14.40;;
3355;SDS011;1691;52.486;13.374;2023-12-07T01:40:11;19.53;;;15.57;;
3355;SDS011;1691;52.486;13.374;2023-12-07T01:42:38;16.67;;;13.40;;
3355;SDS011;1691;52.486;13.374;2023-12-07T01:45:05;16.40;;;14.63;;
3355;SDS011;1691;52.486;13.374;2023-12-07T01:47:33;16.50;;;13.67;;
3355;SDS011;1691;52.486;13.374;2023-12-07T01:50:02;15.47;;;13.73;;
3355;SDS011;1691;52.486;13.374;2023-12-07T01:52:31;14.87;;;12.70;;
3355;SDS011;1691;52.486;13.374;2023-12-07T01:54:59;16.17;;;13.00;;
3355;SDS011;1691;52.486;13.374;2023-12-07T01:57:26;15.03;;;12.83;;
3355;SDS011;1691;52.486;13.374;2023-12-07T01:59:53;18.00;;;14.60;;
3355;SDS011;1691;52.486;13.374;2023-12-07T02:02:21;18.50;;;14.33;;
3355;SDS011;1691;52.486;13.374;2023-12-07T02:04:48;18.37;;;13.40;;
3355;SDS011;1691;52.486;13.374;2023-12-07T02:07:16;19.20;;;13.77;;
3355;SDS011;1691;52.486;13.374;2023-12-07T02:09:44;17.37;;;14.43;;
3355;SDS011;1691;52.486;13.374;2023-12-07T02:12:11;18.60;;;14.37;;
3355;SDS011;1691;52.486;13.374;2023-12-07T02:14:38;16.73;;;13.57;;
3355;SDS011;1691;52.486;13.374;2023-12-07T02:17:11;20.73;;;14.63;;
3355;SDS011;1691;52.486;13.374;2023-12-07T02:19:57;18.90;;;14.13;;
3355;SDS011;1691;52.486;13.374;2023-12-07T02:22:32;17.17;;;14.10;;
3355;SDS011;1691;52.486;13.374;2023-12-07T02:25:41;14.97;;;12.83;;
3355;SDS011;1691;52.486;13.374;2023-12-07T02:28:55;21.10;;;14.30;;
3355;SDS011;1691;52.486;13.374;2023-12-07T02:31:21;21.67;;;15.70;;
3355;SDS011;1691;52.486;13.374;2023-12-07T02:33:49;19.43;;;14.30;;
3355;SDS011;1691;52.486;13.374;2023-12-07T02:36:17;17.27;;;14.07;;
3355;SDS011;1691;52.486;13.374;2023-12-07T02:38:49;15.80;;;13.80;;
3355;SDS011;1691;52.486;13.374;2023-12-07T02:41:18;18.67;;;14.27;;
3355;SDS011;1691;52.486;13.374;2023-12-07T02:43:46;22.07;;;15.67;;
3355;SDS011;1691;52.486;13.374;2023-12-07T02:46:14;18.33;;;14.60;;
3355;SDS011;1691;52.486;13.374;2023-12-07T02:48:41;17.67;;;14.40;;
3355;SDS011;1691;52.486;13.374;2023-12-07T02:51:08;18.53;;;14.60;;
3355;SDS011;1691;52.486;13.374;2023-12-07T02:53:35;16.97;;;13.83;;
3355;SDS011;1691;52.486;13.374;2023-12-07T02:56:02;15.43;;;13.00;;
3355;SDS011;1691;52.486;13.374;2023-12-07T02:58:29;18.50;;;14.40;;
3355;SDS011;1691;52.486;13.374;2023-12-07T03:00:56;17.93;;;14.23;;
3355;SDS011;1691;52.486;13.374;2023-12-07T03:03:23;15.40;;;13.57;;
3355;SDS011;1691;52.486;13.374;2023-12-07T03:05:50;19.90;;;14.33;;
3355;SDS011;1691;52.486;13.374;2023-12-07T03:08:17;24.80;;;15.70;;
3355;SDS011;1691;52.486;13.374;2023-12-07T03:10:44;18.67;;;14.80;;
3355;SDS011;1691;52.486;13.374;2023-12-07T03:13:11;21.10;;;14.87;;
3355;SDS011;1691;52.486;13.374;2023-12-07T03:15:38;18.27;;;14.40;;
3355;SDS011;1691;52.486;13.374;2023-12-07T03:18:05;22.90;;;15.60;;
3355;SDS011;1691;52.486;13.374;2023-12-07T03:20:34;19.30;;;14.77;;
3355;SDS011;1691;52.486;13.374;2023-12-07T03:23:01;16.50;;;13.23;;
3355;SDS011;1691;52.486;13.374;2023-12-07T03:25:28;18.47;;;14.33;;
3355;SDS011;1691;52.486;13.374;2023-12-07T03:27:55;19.83;;;14.90;;
3355;SDS011;1691;52.486;13.374;2023-12-07T03:30:22;20.50;;;14.40;;
3355;SDS011;1691;52.486;13.374;2023-12-07T03:32:49;17.07;;;13.60;;
3355;SDS011;1691;52.486;13.374;2023-12-07T03:35:16;18.17;;;14.77;;
3355;SDS011;1691;52.486;13.374;2023-12-07T03:37:43;21.50;;;14.80;;
3355;SDS011;1691;52.486;13.374;2023-12-07T03:40:10;18.30;;;14.53;;
3355;SDS011;1691;52.486;13.374;2023-12-07T03:42:37;19.50;;;14.73;;
3355;SDS011;1691;52.486;13.374;2023-12-07T03:45:21;19.17;;;14.90;;
3355;SDS011;1691;52.486;13.374;2023-12-07T03:47:48;18.07;;;13.73;;
3355;SDS011;1691;52.486;13.374;2023-12-07T03:50:16;18.83;;;14.63;;
3355;SDS011;1691;52.486;13.374;2023-12-07T03:52:43;22.87;;;15.70;;
3355;SDS011;1691;52.486;13.374;2023-12-07T03:55:10;20.10;;;14.57;;
3355;SDS011;1691;52.486;13.374;2023-12-07T03:57:37;20.97;;;16.03;;
3355;SDS011;1691;52.486;13.374;2023-12-07T04:00:05;24.53;;;16.27;;
3355;SDS011;1691;52.486;13.374;2023-12-07T04:02:35;24.97;;;16.60;;
3355;SDS011;1691;52.486;13.374;2023-12-07T04:05:02;25.03;;;17.50;;
3355;SDS011;1691;52.486;13.374;2023-12-07T04:07:30;24.87;;;17.27;;
3355;SDS011;1691;52.486;13.374;2023-12-07T04:09:57;30.87;;;18.80;;
3355;SDS011;1691;52.486;13.374;2023-12-07T04:12:24;26.07;;;18.30;;
3355;SDS011;1691;52.486;13.374;2023-12-07T04:14:51;29.00;;;18.50;;
3355;SDS011;1691;52.486;13.374;2023-12-07T04:17:19;29.87;;;17.70;;
3355;SDS011;1691;52.486;13.374;2023-12-07T04:19:46;28.10;;;17.80;;
3355;SDS011;1691;52.486;13.374;2023-12-07T04:22:13;32.83;;;18.47;;
3355;SDS011;1691;52.486;13.374;2023-12-07T04:24:39;25.97;;;17.53;;
3355;SDS011;1691;52.486;13.374;2023-12-07T04:27:06;29.07;;;17.80;;
3355;SDS011;1691;52.486;13.374;2023-12-07T04:29:33;31.30;;;18.40;;
3355;SDS011;1691;52.486;13.374;2023-12-07T04:32:02;28.07;;;17.97;;
3355;SDS011;1691;52.486;13.374;2023-12-07T04:34:29;28.90;;;18.13;;
3355;SDS011;1691;52.486;13.374;2023-12-07T04:36:56;30.97;;;18.67;;
3355;SDS011;1691;52.486;13.374;2023-12-07T04:39:23;29.33;;;17.37;;
3355;SDS011;1691;52.486;13.374;2023-12-07T04:41:56;31.90;;;19.37;;
3355;SDS011;1691;52.486;13.374;2023-12-07T04:44:23;25.17;;;17.60;;
3355;SDS011;1691;52.486;13.374;2023-12-07T04:46:52;30.30;;;18.60;;
3355;SDS011;1691;52.486;13.374;2023-12-07T04:49:19;26.57;;;17.40;;
3355;SDS011;1691;52.486;13.374;2023-12-07T04:51:46;26.30;;;16.67;;
3355;SDS011;1691;52.486;13.374;2023-12-07T04:54:13;25.40;;;17.20;;
3355;SDS011;1691;52.486;13.374;2023-12-07T04:56:45;26.17;;;17.13;;
3355;SDS011;1691;52.486;13.374;2023-12-07T04:59:12;31.10;;;19.77;;
3355;SDS011;1691;52.486;13.374;2023-12-07T05:01:39;38.00;;;19.17;;
3355;SDS011;1691;52.486;13.374;2023-12-07T05:04:06;31.07;;;18.50;;
3355;SDS011;1691;52.486;13.374;2023-12-07T05:06:34;35.40;;;19.47;;
3355;SDS011;1691;52.486;13.374;2023-12-07T05:09:01;30.00;;;18.53;;
3355;SDS011;1691;52.486;13.374;2023-12-07T05:11:29;33.30;;;17.83;;
3355;SDS011;1691;52.486;13.374;2023-12-07T05:13:56;35.17;;;19.27;;
3355;SDS011;1691;52.486;13.374;2023-12-07T05:16:24;26.50;;;17.73;;
3355;SDS011;1691;52.486;13.374;2023-12-07T05:18:51;36.60;;;19.77;;
3355;SDS011;1691;52.486;13.374;2023-12-07T05:21:18;32.93;;;17.83;;
3355;SDS011;1691;52.486;13.374;2023-12-07T05:23:44;30.23;;;18.07;;
3355;SDS011;1691;52.486;13.374;2023-12-07T05:26:11;31.27;;;18.33;;
3355;SDS011;1691;52.486;13.374;2023-12-07T05:28:38;28.77;;;17.70;;
3355;SDS011;1691;52.486;13.374;2023-12-07T05:31:05;35.03;;;19.20;;
3355;SDS011;1691;52.486;13.374;2023-12-07T05:33:33;27.80;;;16.27;;
3355;SDS011;1691;52.486;13.374;2023-12-07T05:36:00;28.37;;;17.90;;
3355;SDS011;1691;52.486;13.374;2023-12-07T05:38:29;32.03;;;18.40;;
3355;SDS011;1691;52.486;13.374;2023-12-07T05:40:56;28.30;;;17.77;;
3355;SDS011;1691;52.486;13.374;2023-12-07T05:43:23;30.60;;;18.60;;
3355;SDS011;1691;52.486;13.374;2023-12-07T05:45:50;29.27;;;17.23;;
3355;SDS011;1691;52.486;13.374;2023-12-07T05:48:17;30.93;;;17.93;;
3355;SDS011;1691;52.486;13.374;2023-12-07T05:50:44;26.27;;;17.17;;
3355;SDS011;1691;52.486;13.374;2023-12-07T05:53:11;30.47;;;17.90;;
3355;SDS011;1691;52.486;13.374;2023-12-07T05:55:38;28.40;;;16.43;;
3355;SDS011;1691;52.486;13.374;2023-12-07T05:58:06;32.10;;;17.33;;
3355;SDS011;1691;52.486;13.374;2023-12-07T06:00:33;32.20;;;18.70;;
3355;SDS011;1691;52.486;13.374;2023-12-07T06:03:00;26.77;;;17.47;;
3355;SDS011;1691;52.486;13.374;2023-12-07T06:05:29;28.73;;;16.50;;
3355;SDS011;1691;52.486;13.374;2023-12-07T06:07:56;30.83;;;17.10;;
3355;SDS011;1691;52.486;13.374;2023-12-07T06:10:22;30.80;;;17.43;;
3355;SDS011;1691;52.486;13.374;2023-12-07T06:12:49;32.90;;;18.73;;
3355;SDS011;1691;52.486;13.374;2023-12-07T06:15:16;24.57;;;15.53;;
3355;SDS011;1691;52.486;13.374;2023-12-07T06:17:43;32.67;;;17.67;;
3355;SDS011;1691;52.486;13.374;2023-12-07T06:20:10;29.33;;;16.83;;
3355;SDS011;1691;52.486;13.374;2023-12-07T06:22:38;27.63;;;17.00;;
3355;SDS011;1691;52.486;13.374;2023-12-07T06:25:05;30.87;;;17.53;;
3355;SDS011;1691;52.486;13.374;2023-12-07T06:27:35;32.63;;;17.97;;
3355;SDS011;1691;52.486;13.374;2023-12-07T06:30:03;34.07;;;18.03;;
3355;SDS011;1691;52.486;13.374;2023-12-07T06:32:34;31.37;;;16.73;;
3355;SDS011;1691;52.486;13.374;2023-12-07T06:35:01;32.57;;;16.70;;
3355;SDS011;1691;52.486;13.374;2023-12-07T06:37:30;30.63;;;17.30;;
3355;SDS011;1691;52.486;13.374;2023-12-07T06:39:57;36.37;;;17.30;;
3355;SDS011;1691;52.486;13.374;2023-12-07T06:42:26;30.80;;;18.00;;
3355;SDS011;1691;52.486;13.374;2023-12-07T06:44:53;29.50;;;16.43;;
3355;SDS011;1691;52.486;13.374;2023-12-07T06:47:20;34.40;;;16.83;;
3355;SDS011;1691;52.486;13.374;2023-12-07T06:49:47;36.43;;;17.63;;
3355;SDS011;1691;52.486;13.374;2023-12-07T06:52:18;30.93;;;16.00;;
3355;SDS011;1691;52.486;13.374;2023-12-07T06:54:45;30.23;;;17.73;;
3355;SDS011;1691;52.486;13.374;2023-12-07T06:57:13;30.47;;;17.40;;
3355;SDS011;1691;52.486;13.374;2023-12-07T06:59:40;30.30;;;15.60;;
3355;SDS011;1691;52.486;13.374;2023-12-07T07:02:07;36.17;;;18.00;;
3355;SDS011;1691;52.486;13.374;2023-12-07T07:04:34;29.93;;;15.87;;
3355;SDS011;1691;52.486;13.374;2023-12-07T07:07:01;33.73;;;17.27;;
3355;SDS011;1691;52.486;13.374;2023-12-07T07:09:28;34.00;;;17.53;;
3355;SDS011;1691;52.486;13.374;2023-12-07T07:11:55;33.03;;;18.23;;
3355;SDS011;1691;52.486;13.374;2023-12-07T07:14:22;31.77;;;18.63;;
3355;SDS011;1691;52.486;13.374;2023-12-07T07:16:49;30.47;;;17.03;;
3355;SDS011;1691;52.486;13.374;2023-12-07T07:19:16;35.47;;;18.20;;
3355;SDS011;1691;52.486;13.374;2023-12-07T07:21:44;33.50;;;18.23;;
3355;SDS011;1691;52.486;13.374;2023-12-07T07:24:11;57.50;;;28.77;;
3355;SDS011;1691;52.486;13.374;2023-12-07T07:26:38;30.03;;;15.97;;
3355;SDS011;1691;52.486;13.374;2023-12-07T07:29:05;35.63;;;16.77;;
3355;SDS011;1691;52.486;13.374;2023-12-07T07:31:32;28.93;;;17.03;;
3355;SDS011;1691;52.486;13.374;2023-12-07T07:34:00;28.60;;;16.40;;
3355;SDS011;1691;52.486;13.374;2023-12-07T07:36:27;31.13;;;17.63;;
3355;SDS011;1691;52.486;13.374;2023-12-07T07:38:55;27.23;;;15.93;;
3355;SDS011;1691;52.486;13.374;2023-12-07T07:41:22;31.20;;;17.57;;
3355;SDS011;1691;52.486;13.374;2023-12-07T07:43:49;37.70;;;19.20;;
3355;SDS011;1691;52.486;13.374;2023-12-07T07:46:17;33.70;;;19.10;;
3355;SDS011;1691;52.486;13.374;2023-12-07T07:48:44;27.57;;;16.90;;
3355;SDS011;1691;52.486;13.374;2023-12-07T07:51:11;37.50;;;20.10;;
3355;SDS011;1691;52.486;13.374;2023-12-07T07:53:38;29.70;;;18.40;;
3355;SDS011;1691;52.486;13.374;2023-12-07T07:56:05;30.77;;;17.57;;
3355;SDS011;1691;52.486;13.374;2023-12-07T07:58:32;31.03;;;18.87;;
3355;SDS011;1691;52.486;13.374;2023-12-07T08:01:00;30.00;;;18.53;;
3355;SDS011;1691;52.486;13.374;2023-12-07T08:03:27;29.57;;;18.10;;
3355;SDS011;1691;52.486;13.374;2023-12-07T08:05:54;33.80;;;18.63;;
3355;SDS011;1691;52.486;13.374;2023-12-07T08:08:21;28.77;;;17.13;;
3355;SDS011;1691;52.486;13.374;2023-12-07T08:10:48;26.80;;;16.87;;
3355;SDS011;1691;52.486;13.374;2023-12-07T08:13:22;25.30;;;16.63;;
3355;SDS011;1691;52.486;13.374;2023-12-07T08:15:49;31.50;;;19.83;;
3355;SDS011;1691;52.486;13.374;2023-12-07T08:18:18;24.67;;;15.80;;
3355;SDS011;1691;52.486;13.374;2023-12-07T08:20:45;29.63;;;17.50;;
3355;SDS011;1691;52.486;13.374;2023-12-07T08:23:13;27.43;;;17.10;;
3355;SDS011;1691;52.486;13.374;2023-12-07T08:25:39;27.43;;;17.47;;
3355;SDS011;1691;52.486;13.374;2023-12-07T08:28:06;28.90;;;18.37;;
3355;SDS011;1691;52.486;13.374;2023-12-07T08:30:36;29.47;;;17.67;;
3355;SDS011;1691;52.486;13.374;2023-12-07T08:33:03;27.20;;;16.50;;
3355;SDS011;1691;52.486;13.374;2023-12-07T08:35:30;27.60;;;18.03;;
3355;SDS011;1691;52.486;13.374;2023-12-07T08:37:57;27.17;;;17.20;;
3355;SDS011;1691;52.486;13.374;2023-12-07T08:40:24;31.70;;;17.67;;
3355;SDS011;1691;52.486;13.374;2023-12-07T08:42:51;35.00;;;17.17;;
3355;SDS011;1691;52.486;13.374;2023-12-07T08:45:18;24.67;;;16.70;;
3355;SDS011;1691;52.486;13.374;2023-12-07T08:47:45;27.80;;;17.20;;
3355;SDS011;1691;52.486;13.374;2023-12-07T08:50:12;49.10;;;26.83;;
3355;SDS011;1691;52.486;13.374;2023-12-07T08:52:39;36.47;;;19.30;;
3355;SDS011;1691;52.486;13.374;2023-12-07T08:55:15;29.40;;;18.63;;
3355;SDS011;1691;52.486;13.374;2023-12-07T08:57:43;31.40;;;18.55;;
3355;SDS011;1691;52.486;13.374;2023-12-07T09:00:10;27.73;;;17.30;;
3355;SDS011;1691;52.486;13.374;2023-12-07T09:02:39;28.60;;;18.10;;
3355;SDS011;1691;52.486;13.374;2023-12-07T09:05:13;34.23;;;20.07;;
3355;SDS011;1691;52.486;13.374;2023-12-07T09:07:41;29.97;;;17.40;;
3355;SDS011;1691;52.486;13.374;2023-12-07T09:10:08;28.30;;;17.33;;
3355;SDS011;1691;52.486;13.374;2023-12-07T09:12:36;30.03;;;18.70;;
3355;SDS011;1691;52.486;13.374;2023-12-07T09:15:05;27.27;;;17.37;;
3355;SDS011;1691;52.486;13.374;2023-12-07T09:17:34;30.47;;;18.87;;
3355;SDS011;1691;52.486;13.374;2023-12-07T09:20:04;25.63;;;16.70;;
3355;SDS011;1691;52.486;13.374;2023-12-07T09:22:39;26.47;;;16.47;;
3355;SDS011;1691;52.486;13.374;2023-12-07T09:25:11;25.50;;;15.27;;
3355;SDS011;1691;52.486;13.374;2023-12-07T09:27:39;24.10;;;14.50;;
3355;SDS011;1691;52.486;13.374;2023-12-07T09:30:10;24.77;;;14.23;;
3355;SDS011;1691;52.486;13.374;2023-12-07T09:32:41;20.73;;;14.13;;
3355;SDS011;1691;52.486;13.374;2023-12-07T09:35:11;25.60;;;15.57;;
3355;SDS011;1691;52.486;13.374;2023-12-07T09:37:48;27.40;;;15.63;;
3355;SDS011;1691;52.486;13.374;2023-12-07T09:40:20;21.63;;;15.53;;
3355;SDS011;1691;52.486;13.374;2023-12-07T09:42:49;27.87;;;17.07;;
3355;SDS011;1691;52.486;13.374;2023-12-07T09:45:17;25.77;;;15.87;;
3355;SDS011;1691;52.486;13.374;2023-12-07T09:47:47;26.70;;;14.90;;
3355;SDS011;1691;52.486;13.374;2023-12-07T09:50:17;27.13;;;16.63;;
3355;SDS011;1691;52.486;13.374;2023-12-07T09:52:52;30.10;;;17.50;;
3355;SDS011;1691;52.486;13.374;2023-12-07T09:55:33;25.80;;;15.90;;
3355;SDS011;1691;52.486;13.374;2023-12-07T09:58:03;31.00;;;17.27;;
3355;SDS011;1691;52.486;13.374;2023-12-07T10:00:33;31.50;;;16.80;;
3355;SDS011;1691;52.486;13.374;2023-12-07T10:03:01;32.77;;;18.80;;
3355;SDS011;1691;52.486;13.374;2023-12-07T10:05:29;76.47;;;33.13;;
3355;SDS011;1691;52.486;13.374;2023-12-07T10:07:56;35.83;;;19.43;;
3355;SDS011;1691;52.486;13.374;2023-12-07T10:10:23;71.67;;;32.10;;
3355;SDS011;1691;52.486;13.374;2023-12-07T10:15:22;36.53;;;19.93;;
3355;SDS011;1691;52.486;13.374;2023-12-07T10:17:54;32.13;;;17.97;;
3355;SDS011;1691;52.486;13.374;2023-12-07T10:20:27;32.80;;;18.77;;
3355;SDS011;1691;52.486;13.374;2023-12-07T10:23:05;35.60;;;18.83;;
3355;SDS011;1691;52.486;13.374;2023-12-07T10:28:07;29.50;;;18.03;;
3355;SDS011;1691;52.486;13.374;2023-12-07T10:30:39;26.70;;;16.83;;
3355;SDS011;1691;52.486;13.374;2023-12-07T10:33:09;28.47;;;17.23;;
3355;SDS011;1691;52.486;13.374;2023-12-07T10:35:39;29.77;;;17.10;;
3355;SDS011;1691;52.486;13.374;2023-12-07T10:38:07;31.07;;;16.50;;
3355;SDS011;1691;52.486;13.374;2023-12-07T10:40:35;28.07;;;17.47;;
3355;SDS011;1691;52.486;13.374;2023-12-07T10:43:06;25.30;;;15.90;;
3355;SDS011;1691;52.486;13.374;2023-12-07T10:45:35;32.53;;;17.00;;
3355;SDS011;1691;52.486;13.374;2023-12-07T10:48:10;25.40;;;15.73;;
3355;SDS011;1691;52.486;13.374;2023-12-07T10:50:41;32.23;;;16.83;;
3355;SDS011;1691;52.486;13.374;2023-12-07T10:53:11;25.67;;;15.90;;
3355;SDS011;1691;52.486;13.374;2023-12-07T10:55:52;27.73;;;16.07;;
3355;SDS011;1691;52.486;13.374;2023-12-07T10:58:23;35.40;;;19.93;;
3355;SDS011;1691;52.486;13.374;2023-12-07T11:00:54;27.70;;;16.80;;
3355;SDS011;1691;52.486;13.374;2023-12-07T11:03:22;31.77;;;17.57;;
3355;SDS011;1691;52.486;13.374;2023-12-07T11:05:50;27.53;;;17.00;;
3355;SDS011;1691;52.486;13.374;2023-12-07T11:08:36;27.37;;;16.30;;
3355;SDS011;1691;52.486;13.374;2023-12-07T11:16:32;27.33;;;16.07;;
3355;SDS011;1691;52.486;13.374;2023-12-07T11:19:02;24.40;;;15.43;;
3355;SDS011;1691;52.486;13.374;2023-12-07T11:21:36;27.60;;;15.27;;
3355;SDS011;1691;52.486;13.374;2023-12-07T11:24:03;34.40;;;20.07;;
3355;SDS011;1691;52.486;13.374;2023-12-07T11:26:31;36.50;;;22.20;;
3355;SDS011;1691;52.486;13.374;2023-12-07T11:28:58;23.90;;;16.33;;
3355;SDS011;1691;52.486;13.374;2023-12-07T11:31:26;24.37;;;15.43;;
3355;SDS011;1691;52.486;13.374;2023-12-07T11:33:54;26.77;;;16.00;;
3355;SDS011;1691;52.486;13.374;2023-12-07T11:36:21;23.20;;;15.83;;
3355;SDS011;1691;52.486;13.374;2023-12-07T11:41:45;30.50;;;18.63;;
3355;SDS011;1691;52.486;13.374;2023-12-07T11:44:32;28.20;;;17.17;;
3355;SDS011;1691;52.486;13.374;2023-12-07T11:47:01;28.47;;;16.80;;
3355;SDS011;1691;52.486;13.374;2023-12-07T11:49:28;29.17;;;16.17;;
3355;SDS011;1691;52.486;13.374;2023-12-07T11:52:23;26.80;;;16.37;;
3355;SDS011;1691;52.486;13.374;2023-12-07T11:54:49;28.53;;;18.10;;
3355;SDS011;1691;52.486;13.374;2023-12-07T11:57:17;27.87;;;16.67;;
3355;SDS011;1691;52.486;13.374;2023-12-07T11:59:45;28.50;;;17.70;;
3355;SDS011;1691;52.486;13.374;2023-12-07T12:02:15;28.07;;;18.37;;
3355;SDS011;1691;52.486;13.374;2023-12-07T12:04:42;30.90;;;18.30;;
3355;SDS011;1691;52.486;13.374;2023-12-07T12:07:10;28.27;;;16.40;;
3355;SDS011;1691;52.486;13.374;2023-12-07T12:09:37;32.50;;;18.67;;
3355;SDS011;1691;52.486;13.374;2023-12-07T12:12:05;29.83;;;17.77;;
3355;SDS011;1691;52.486;13.374;2023-12-07T12:14:32;35.10;;;19.50;;
3355;SDS011;1691;52.486;13.374;2023-12-07T12:16:59;36.63;;;19.80;;
3355;SDS011;1691;52.486;13.374;2023-12-07T12:19:26;24.53;;;15.90;;
3355;SDS011;1691;52.486;13.374;2023-12-07T12:22:02;28.47;;;17.50;;
3355;SDS011;1691;52.486;13.374;2023-12-07T12:24:34;29.20;;;17.07;;
3355;SDS011;1691;52.486;13.374;2023-12-07T12:27:03;33.93;;;18.97;;
3355;SDS011;1691;52.486;13.374;2023-12-07T12:29:30;25.10;;;16.43;;
3355;SDS011;1691;52.486;13.374;2023-12-07T12:32:01;37.47;;;20.77;;
3355;SDS011;1691;52.486;13.374;2023-12-07T12:34:30;31.83;;;19.40;;
3355;SDS011;1691;52.486;13.374;2023-12-07T12:37:00;38.80;;;23.20;;
3355;SDS011;1691;52.486;13.374;2023-12-07T12:39:28;33.03;;;18.83;;
3355;SDS011;1691;52.486;13.374;2023-12-07T12:41:59;34.13;;;19.73;;
3355;SDS011;1691;52.486;13.374;2023-12-07T12:44:30;39.10;;;21.77;;
3355;SDS011;1691;52.486;13.374;2023-12-07T12:47:07;33.57;;;20.57;;
3355;SDS011;1691;52.486;13.374;2023-12-07T12:49:39;39.23;;;20.80;;
3355;SDS011;1691;52.486;13.374;2023-12-07T12:52:11;38.90;;;21.33;;
3355;SDS011;1691;52.486;13.374;2023-12-07T12:54:46;35.17;;;21.20;;
3355;SDS011;1691;52.486;13.374;2023-12-07T12:57:16;37.37;;;22.07;;
3355;SDS011;1691;52.486;13.374;2023-12-07T12:59:44;48.37;;;24.00;;
3355;SDS011;1691;52.486;13.374;2023-12-07T13:02:11;38.90;;;22.53;;
3355;SDS011;1691;52.486;13.374;2023-12-07T13:04:38;35.60;;;21.47;;
3355;SDS011;1691;52.486;13.374;2023-12-07T13:07:08;38.37;;;22.93;;
3355;SDS011;1691;52.486;13.374;2023-12-07T13:09:35;35.40;;;21.70;;
3355;SDS011;1691;52.486;13.374;2023-12-07T13:12:02;42.93;;;23.87;;
3355;SDS011;1691;52.486;13.374;2023-12-07T13:14:32;41.37;;;23.13;;
3355;SDS011;1691;52.486;13.374;2023-12-07T13:17:04;47.80;;;24.70;;
3355;SDS011;1691;52.486;13.374;2023-12-07T13:19:34;39.90;;;22.53;;
3355;SDS011;1691;52.486;13.374;2023-12-07T13:22:02;48.43;;;24.83;;
3355;SDS011;1691;52.486;13.374;2023-12-07T13:24:29;44.23;;;23.47;;
3355;SDS011;1691;52.486;13.374;2023-12-07T13:26:56;48.03;;;25.00;;
3355;SDS011;1691;52.486;13.374;2023-12-07T13:29:26;43.10;;;23.70;;
3355;SDS011;1691;52.486;13.374;2023-12-07T13:32:01;45.70;;;24.97;;
3355;SDS011;1691;52.486;13.374;2023-12-07T13:34:30;37.17;;;23.20;;
3355;SDS011;1691;52.486;13.374;2023-12-07T13:36:57;45.20;;;24.90;;
3355;SDS011;1691;52.486;13.374;2023-12-07T13:39:24;46.50;;;25.13;;
3355;SDS011;1691;52.486;13.374;2023-12-07T13:41:57;45.27;;;24.10;;
3355;SDS011;1691;52.486;13.374;2023-12-07T13:44:28;44.53;;;24.37;;
3355;SDS011;1691;52.486;13.374;2023-12-07T13:46:55;54.07;;;26.07;;
3355;SDS011;1691;52.486;13.374;2023-12-07T13:49:23;49.10;;;25.50;;
3355;SDS011;1691;52.486;13.374;2023-12-07T13:51:59;44.23;;;26.00;;
3355;SDS011;1691;52.486;13.374;2023-12-07T13:54:34;52.10;;;25.73;;
3355;SDS011;1691;52.486;13.374;2023-12-07T13:57:19;49.83;;;25.83;;
3355;SDS011;1691;52.486;13.374;2023-12-07T13:59:48;51.03;;;24.60;;
3355;SDS011;1691;52.486;13.374;2023-12-07T14:02:17;46.60;;;25.27;;
3355;SDS011;1691;52.486;13.374;2023-12-07T14:04:45;50.03;;;27.03;;
3355;SDS011;1691;52.486;13.374;2023-12-07T14:07:20;53.50;;;26.30;;
3355;SDS011;1691;52.486;13.374;2023-12-07T14:09:51;62.30;;;28.80;;
3355;SDS011;1691;52.486;13.374;2023-12-07T14:12:24;60.83;;;27.37;;
3355;SDS011;1691;52.486;13.374;2023-12-07T14:14:55;54.73;;;26.60;;
3355;SDS011;1691;52.486;13.374;2023-12-07T14:17:22;84.07;;;37.33;;
3355;SDS011;1691;52.486;13.374;2023-12-07T14:20:00;60.97;;;30.10;;
3355;SDS011;1691;52.486;13.374;2023-12-07T14:22:47;68.17;;;27.43;;
3355;SDS011;1691;52.486;13.374;2023-12-07T14:25:15;59.97;;;29.50;;
3355;SDS011;1691;52.486;13.374;2023-12-07T14:27:44;65.40;;;27.50;;
3355;SDS011;1691;52.486;13.374;2023-12-07T14:30:11;62.40;;;27.20;;
3355;SDS011;1691;52.486;13.374;2023-12-07T14:32:39;63.53;;;28.87;;
3355;SDS011;1691;52.486;13.374;2023-12-07T14:35:10;63.37;;;25.77;;
3355;SDS011;1691;52.486;13.374;2023-12-07T14:37:38;81.10;;;29.03;;
3355;SDS011;1691;52.486;13.374;2023-12-07T14:40:07;67.20;;;29.90;;
3355;SDS011;1691;52.486;13.374;2023-12-07T14:42:35;61.93;;;28.13;;
3355;SDS011;1691;52.486;13.374;2023-12-07T14:45:02;73.50;;;29.63;;
3355;SDS011;1691;52.486;13.374;2023-12-07T14:47:31;76.70;;;30.93;;
3355;SDS011;1691;52.486;13.374;2023-12-07T14:49:58;68.57;;;26.93;;
3355;SDS011;1691;52.486;13.374;2023-12-07T14:52:27;62.57;;;27.33;;
3355;SDS011;1691;52.486;13.374;2023-12-07T14:54:54;59.87;;;28.13;;
3355;SDS011;1691;52.486;13.374;2023-12-07T14:57:20;71.23;;;29.30;;